sensor_id;sensor_type;location;lat;lon;timestamp;temperature;humidity
25933;DHT22;13731;51.166;4.474;2023-08-20T00:00:10;18.80;1.00
25933;DHT22;13731;51.166;4.474;2023-08-20T00:02:41;18.70;1.00
25933;DHT22;13731;51.166;4.474;2023-08-20T00:05:07;18.70;99.90
25933;DHT22;13731;51.166;4.474;2023-08-20T00:07:33;18.90;99.90
25933;DHT22;13731;51.166;4.474;2023-08-20T00:09:59;19.10;1.00
25933;DHT22;13731;51.166;4.474;2023-08-20T00:12:25;19.20;99.90
25933;DHT22;13731;51.166;4.474;2023-08-20T00:14:55;19.30;52.30
25933;DHT22;13731;51.166;4.474;2023-08-20T00:17:22;19.50;1.00
25933;DHT22;13731;51.166;4.474;2023-08-20T00:19:50;19.60;1.00
25933;DHT22;13731;51.166;4.474;2023-08-20T00:22:16;19.60;99.90
25933;DHT22;13731;51.166;4.474;2023-08-20T00:24:42;19.70;99.90
25933;DHT22;13731;51.166;4.474;2023-08-20T00:27:08;19.70;1.00
25933;DHT22;13731;51.166;4.474;2023-08-20T00:29:34;19.80;1.00
25933;DHT22;13731;51.166;4.474;2023-08-20T00:31:59;19.90;1.00
25933;DHT22;13731;51.166;4.474;2023-08-20T00:34:25;20.00;1.00
25933;DHT22;13731;51.166;4.474;2023-08-20T00:36:51;20.10;99.90
25933;DHT22;13731;51.166;4.474;2023-08-20T00:39:16;20.10;99.90
25933;DHT22;13731;51.166;4.474;2023-08-20T00:41:42;20.00;99.90
25933;DHT22;13731;51.166;4.474;2023-08-20T00:44:08;20.00;1.00
25933;DHT22;13731;51.166;4.474;2023-08-20T00:46:34;19.90;1.00
25933;DHT22;13731;51.166;4.474;2023-08-20T00:48:59;20.00;1.00
25933;DHT22;13731;51.166;4.474;2023-08-20T00:51:26;20.20;99.90
25933;DHT22;13731;51.166;4.474;2023-08-20T00:53:51;20.20;99.90
25933;DHT22;13731;51.166;4.474;2023-08-20T00:56:17;20.20;99.90
25933;DHT22;13731;51.166;4.474;2023-08-20T00:58:43;20.30;99.90
25933;DHT22;13731;51.166;4.474;2023-08-20T01:01:10;20.30;49.00
25933;DHT22;13731;51.166;4.474;2023-08-20T01:03:35;20.30;99.80
25933;DHT22;13731;51.166;4.474;2023-08-20T01:06:20;20.40;93.30
25933;DHT22;13731;51.166;4.474;2023-08-20T01:08:51;20.60;1.00
25933;DHT22;13731;51.166;4.474;2023-08-20T01:11:28;20.60;1.00
25933;DHT22;13731;51.166;4.474;2023-08-20T01:13:54;20.60;1.00
25933;DHT22;13731;51.166;4.474;2023-08-20T01:16:20;20.40;1.00
25933;DHT22;13731;51.166;4.474;2023-08-20T01:18:47;20.60;1.00
25933;DHT22;13731;51.166;4.474;2023-08-20T01:21:50;20.70;1.00
25933;DHT22;13731;51.166;4.474;2023-08-20T01:27:00;20.80;99.90
25933;DHT22;13731;51.166;4.474;2023-08-20T01:29:24;20.80;99.90
25933;DHT22;13731;51.166;4.474;2023-08-20T01:31:51;20.80;99.90
25933;DHT22;13731;51.166;4.474;2023-08-20T01:34:18;20.70;99.90
25933;DHT22;13731;51.166;4.474;2023-08-20T01:36:44;20.80;99.90
25933;DHT22;13731;51.166;4.474;2023-08-20T01:39:10;20.90;99.90
25933;DHT22;13731;51.166;4.474;2023-08-20T01:41:35;20.80;99.90
25933;DHT22;13731;51.166;4.474;2023-08-20T01:44:01;20.70;99.90
25933;DHT22;13731;51.166;4.474;2023-08-20T01:46:27;20.60;99.90
25933;DHT22;13731;51.166;4.474;2023-08-20T01:48:53;20.60;99.90
25933;DHT22;13731;51.166;4.474;2023-08-20T01:51:19;20.60;99.90
25933;DHT22;13731;51.166;4.474;2023-08-20T01:53:45;20.60;99.90
25933;DHT22;13731;51.166;4.474;2023-08-20T01:56:11;20.40;1.00
25933;DHT22;13731;51.166;4.474;2023-08-20T01:58:38;20.30;6.50
25933;DHT22;13731;51.166;4.474;2023-08-20T02:01:04;20.20;99.90
25933;DHT22;13731;51.166;4.474;2023-08-20T02:03:30;20.00;1.00
25933;DHT22;13731;51.166;4.474;2023-08-20T02:05:57;19.80;99.90
25933;DHT22;13731;51.166;4.474;2023-08-20T02:08:22;19.80;99.90
25933;DHT22;13731;51.166;4.474;2023-08-20T02:10:48;19.70;99.90
25933;DHT22;13731;51.166;4.474;2023-08-20T02:13:14;19.60;1.00
25933;DHT22;13731;51.166;4.474;2023-08-20T02:15:40;19.50;99.40
25933;DHT22;13731;51.166;4.474;2023-08-20T02:18:05;19.40;99.90
25933;DHT22;13731;51.166;4.474;2023-08-20T02:20:31;19.30;99.90
25933;DHT22;13731;51.166;4.474;2023-08-20T02:22:57;19.10;1.00
25933;DHT22;13731;51.166;4.474;2023-08-20T02:25:23;19.00;1.00
25933;DHT22;13731;51.166;4.474;2023-08-20T02:27:49;19.00;99.90
25933;DHT22;13731;51.166;4.474;2023-08-20T02:30:14;18.90;99.90
25933;DHT22;13731;51.166;4.474;2023-08-20T02:32:40;18.80;1.00
25933;DHT22;13731;51.166;4.474;2023-08-20T02:35:06;18.70;99.90
25933;DHT22;13731;51.166;4.474;2023-08-20T02:37:32;18.70;99.90
25933;DHT22;13731;51.166;4.474;2023-08-20T02:39:58;18.60;99.90
25933;DHT22;13731;51.166;4.474;2023-08-20T02:42:23;18.60;99.90
25933;DHT22;13731;51.166;4.474;2023-08-20T02:44:49;18.60;99.90
25933;DHT22;13731;51.166;4.474;2023-08-20T02:47:15;18.50;1.00
25933;DHT22;13731;51.166;4.474;2023-08-20T02:49:41;18.40;1.00
25933;DHT22;13731;51.166;4.474;2023-08-20T02:52:06;18.40;99.90
25933;DHT22;13731;51.166;4.474;2023-08-20T02:54:32;18.40;99.90
25933;DHT22;13731;51.166;4.474;2023-08-20T02:56:58;18.40;1.00
25933;DHT22;13731;51.166;4.474;2023-08-20T02:59:24;18.40;1.00
25933;DHT22;13731;51.166;4.474;2023-08-20T03:01:50;18.40;99.90
25933;DHT22;13731;51.166;4.474;2023-08-20T03:04:15;18.40;1.00
25933;DHT22;13731;51.166;4.474;2023-08-20T03:06:41;18.30;1.00
25933;DHT22;13731;51.166;4.474;2023-08-20T03:09:07;18.30;99.90
25933;DHT22;13731;51.166;4.474;2023-08-20T03:11:33;18.20;1.00
25933;DHT22;13731;51.166;4.474;2023-08-20T03:13:59;18.20;94.50
25933;DHT22;13731;51.166;4.474;2023-08-20T03:16:24;18.20;99.90
25933;DHT22;13731;51.166;4.474;2023-08-20T03:18:50;18.10;99.90
25933;DHT22;13731;51.166;4.474;2023-08-20T03:21:16;18.00;1.00
25933;DHT22;13731;51.166;4.474;2023-08-20T03:23:41;17.90;1.00
25933;DHT22;13731;51.166;4.474;2023-08-20T03:26:07;17.90;1.00
25933;DHT22;13731;51.166;4.474;2023-08-20T03:28:33;17.90;1.00
25933;DHT22;13731;51.166;4.474;2023-08-20T03:30:59;17.80;11.50
25933;DHT22;13731;51.166;4.474;2023-08-20T03:33:26;17.80;1.00
25933;DHT22;13731;51.166;4.474;2023-08-20T03:35:52;17.80;1.00
25933;DHT22;13731;51.166;4.474;2023-08-20T03:38:18;17.80;1.00
25933;DHT22;13731;51.166;4.474;2023-08-20T03:40:43;17.90;99.20
25933;DHT22;13731;51.166;4.474;2023-08-20T03:43:10;17.90;99.90
25933;DHT22;13731;51.166;4.474;2023-08-20T03:45:36;18.00;65.20
25933;DHT22;13731;51.166;4.474;2023-08-20T03:48:02;18.10;43.70
25933;DHT22;13731;51.166;4.474;2023-08-20T03:50:29;18.00;99.90
25933;DHT22;13731;51.166;4.474;2023-08-20T03:52:54;18.10;74.20
25933;DHT22;13731;51.166;4.474;2023-08-20T03:55:20;18.00;99.90
25933;DHT22;13731;51.166;4.474;2023-08-20T03:57:46;18.00;99.90
25933;DHT22;13731;51.166;4.474;2023-08-20T04:00:12;17.90;99.90
25933;DHT22;13731;51.166;4.474;2023-08-20T04:02:44;17.90;99.90
25933;DHT22;13731;51.166;4.474;2023-08-20T04:05:10;18.00;99.90
25933;DHT22;13731;51.166;4.474;2023-08-20T04:07:35;18.00;99.90
25933;DHT22;13731;51.166;4.474;2023-08-20T04:10:01;17.90;99.90
25933;DHT22;13731;51.166;4.474;2023-08-20T04:12:28;18.00;99.90
25933;DHT22;13731;51.166;4.474;2023-08-20T04:14:56;17.90;99.90
25933;DHT22;13731;51.166;4.474;2023-08-20T04:17:22;17.90;99.90
25933;DHT22;13731;51.166;4.474;2023-08-20T04:19:47;17.80;99.90
25933;DHT22;13731;51.166;4.474;2023-08-20T04:22:13;17.80;1.00
25933;DHT22;13731;51.166;4.474;2023-08-20T04:24:39;17.70;1.00
25933;DHT22;13731;51.166;4.474;2023-08-20T04:27:05;17.70;65.60
25933;DHT22;13731;51.166;4.474;2023-08-20T04:29:31;17.70;99.90
25933;DHT22;13731;51.166;4.474;2023-08-20T04:31:58;17.80;99.90
25933;DHT22;13731;51.166;4.474;2023-08-20T04:34:24;17.80;1.00
25933;DHT22;13731;51.166;4.474;2023-08-20T04:36:52;17.90;1.00
25933;DHT22;13731;51.166;4.474;2023-08-20T04:39:18;18.00;1.00
25933;DHT22;13731;51.166;4.474;2023-08-20T04:41:48;18.00;99.90
25933;DHT22;13731;51.166;4.474;2023-08-20T04:44:16;18.00;99.90
25933;DHT22;13731;51.166;4.474;2023-08-20T04:46:43;18.10;99.90
25933;DHT22;13731;51.166;4.474;2023-08-20T04:49:09;18.00;99.90
25933;DHT22;13731;51.166;4.474;2023-08-20T04:51:37;17.90;1.00
25933;DHT22;13731;51.166;4.474;2023-08-20T04:54:02;17.90;3.60
25933;DHT22;13731;51.166;4.474;2023-08-20T04:56:28;18.00;1.00
25933;DHT22;13731;51.166;4.474;2023-08-20T04:58:55;18.10;1.00
25933;DHT22;13731;51.166;4.474;2023-08-20T05:01:44;18.20;1.00
25933;DHT22;13731;51.166;4.474;2023-08-20T05:04:11;18.20;99.90
25933;DHT22;13731;51.166;4.474;2023-08-20T05:06:37;18.30;99.90
25933;DHT22;13731;51.166;4.474;2023-08-20T05:09:03;18.30;96.20
25933;DHT22;13731;51.166;4.474;2023-08-20T05:11:29;18.30;1.00
25933;DHT22;13731;51.166;4.474;2023-08-20T05:13:57;18.20;1.00
25933;DHT22;13731;51.166;4.474;2023-08-20T05:16:23;18.20;1.00
25933;DHT22;13731;51.166;4.474;2023-08-20T05:18:50;18.20;1.00
25933;DHT22;13731;51.166;4.474;2023-08-20T05:21:15;18.20;99.90
25933;DHT22;13731;51.166;4.474;2023-08-20T05:23:41;18.10;1.00
25933;DHT22;13731;51.166;4.474;2023-08-20T05:26:07;18.10;41.50
25933;DHT22;13731;51.166;4.474;2023-08-20T05:28:33;18.10;99.30
25933;DHT22;13731;51.166;4.474;2023-08-20T05:30:59;18.10;99.90
25933;DHT22;13731;51.166;4.474;2023-08-20T05:33:25;18.10;99.90
25933;DHT22;13731;51.166;4.474;2023-08-20T05:35:52;18.10;99.90
25933;DHT22;13731;51.166;4.474;2023-08-20T05:38:19;18.10;99.90
25933;DHT22;13731;51.166;4.474;2023-08-20T05:40:46;18.10;99.90
25933;DHT22;13731;51.166;4.474;2023-08-20T05:43:12;18.10;99.90
25933;DHT22;13731;51.166;4.474;2023-08-20T05:45:39;18.10;99.90
25933;DHT22;13731;51.166;4.474;2023-08-20T05:48:07;18.20;99.90
25933;DHT22;13731;51.166;4.474;2023-08-20T05:50:32;18.30;99.90
25933;DHT22;13731;51.166;4.474;2023-08-20T05:52:58;18.40;99.90
25933;DHT22;13731;51.166;4.474;2023-08-20T05:55:26;18.50;99.90
25933;DHT22;13731;51.166;4.474;2023-08-20T05:57:53;18.60;99.90
25933;DHT22;13731;51.166;4.474;2023-08-20T06:00:20;18.90;1.00
25933;DHT22;13731;51.166;4.474;2023-08-20T06:02:46;19.10;99.90
25933;DHT22;13731;51.166;4.474;2023-08-20T06:05:12;19.30;1.00
25933;DHT22;13731;51.166;4.474;2023-08-20T06:07:38;19.80;1.00
25933;DHT22;13731;51.166;4.474;2023-08-20T06:10:04;20.40;99.90
25933;DHT22;13731;51.166;4.474;2023-08-20T06:12:30;20.80;99.90
25933;DHT22;13731;51.166;4.474;2023-08-20T06:14:56;20.80;1.00
25933;DHT22;13731;51.166;4.474;2023-08-20T06:17:22;20.60;1.00
25933;DHT22;13731;51.166;4.474;2023-08-20T06:19:47;20.50;31.20
25933;DHT22;13731;51.166;4.474;2023-08-20T06:22:13;20.30;99.90
25933;DHT22;13731;51.166;4.474;2023-08-20T06:24:39;20.20;99.90
25933;DHT22;13731;51.166;4.474;2023-08-20T06:27:04;20.30;99.90
25933;DHT22;13731;51.166;4.474;2023-08-20T06:29:30;20.30;99.90
25933;DHT22;13731;51.166;4.474;2023-08-20T06:31:56;20.30;92.10
25933;DHT22;13731;51.166;4.474;2023-08-20T06:34:22;20.30;1.00
25933;DHT22;13731;51.166;4.474;2023-08-20T06:36:48;20.40;1.00
25933;DHT22;13731;51.166;4.474;2023-08-20T06:39:14;20.60;99.90
25933;DHT22;13731;51.166;4.474;2023-08-20T06:41:41;20.80;18.00
25933;DHT22;13731;51.166;4.474;2023-08-20T06:44:18;21.00;1.00
25933;DHT22;13731;51.166;4.474;2023-08-20T06:46:43;20.80;1.00
25933;DHT22;13731;51.166;4.474;2023-08-20T06:49:09;20.60;1.00
25933;DHT22;13731;51.166;4.474;2023-08-20T06:51:35;20.60;1.00
25933;DHT22;13731;51.166;4.474;2023-08-20T06:54:01;20.70;1.00
25933;DHT22;13731;51.166;4.474;2023-08-20T06:56:29;20.70;1.00
25933;DHT22;13731;51.166;4.474;2023-08-20T06:58:54;20.90;99.90
25933;DHT22;13731;51.166;4.474;2023-08-20T07:01:20;21.20;99.90
25933;DHT22;13731;51.166;4.474;2023-08-20T07:03:45;21.10;99.90
25933;DHT22;13731;51.166;4.474;2023-08-20T07:06:11;21.00;99.90
25933;DHT22;13731;51.166;4.474;2023-08-20T07:08:39;20.90;99.90
25933;DHT22;13731;51.166;4.474;2023-08-20T07:11:06;21.00;99.90
25933;DHT22;13731;51.166;4.474;2023-08-20T07:13:31;21.10;81.90
25933;DHT22;13731;51.166;4.474;2023-08-20T07:15:57;21.20;92.00
25933;DHT22;13731;51.166;4.474;2023-08-20T07:18:23;21.30;8.50
25933;DHT22;13731;51.166;4.474;2023-08-20T07:20:49;21.30;1.00
25933;DHT22;13731;51.166;4.474;2023-08-20T07:23:15;21.40;1.00
25933;DHT22;13731;51.166;4.474;2023-08-20T07:25:41;21.40;1.00
25933;DHT22;13731;51.166;4.474;2023-08-20T07:28:07;21.50;1.00
25933;DHT22;13731;51.166;4.474;2023-08-20T07:30:34;21.60;1.00
25933;DHT22;13731;51.166;4.474;2023-08-20T07:33:00;21.60;1.00
25933;DHT22;13731;51.166;4.474;2023-08-20T07:35:26;21.60;1.00
25933;DHT22;13731;51.166;4.474;2023-08-20T07:37:52;21.60;1.00
25933;DHT22;13731;51.166;4.474;2023-08-20T07:40:18;21.70;1.00
25933;DHT22;13731;51.166;4.474;2023-08-20T07:42:44;21.90;99.90
25933;DHT22;13731;51.166;4.474;2023-08-20T07:45:10;22.20;99.90
25933;DHT22;13731;51.166;4.474;2023-08-20T07:47:36;22.30;99.90
25933;DHT22;13731;51.166;4.474;2023-08-20T07:50:02;22.30;99.90
25933;DHT22;13731;51.166;4.474;2023-08-20T07:52:28;22.40;99.90
25933;DHT22;13731;51.166;4.474;2023-08-20T07:54:54;22.60;99.90
25933;DHT22;13731;51.166;4.474;2023-08-20T07:57:20;22.60;99.90
25933;DHT22;13731;51.166;4.474;2023-08-20T07:59:46;22.50;99.90
25933;DHT22;13731;51.166;4.474;2023-08-20T08:02:12;22.70;99.90
25933;DHT22;13731;51.166;4.474;2023-08-20T08:04:37;22.90;99.90
25933;DHT22;13731;51.166;4.474;2023-08-20T08:07:03;22.70;99.90
25933;DHT22;13731;51.166;4.474;2023-08-20T08:09:30;22.50;99.90
25933;DHT22;13731;51.166;4.474;2023-08-20T08:11:55;22.50;99.90
25933;DHT22;13731;51.166;4.474;2023-08-20T08:14:21;22.40;99.90
25933;DHT22;13731;51.166;4.474;2023-08-20T08:16:47;22.30;99.90
25933;DHT22;13731;51.166;4.474;2023-08-20T08:19:13;22.30;99.90
25933;DHT22;13731;51.166;4.474;2023-08-20T08:21:39;22.40;99.90
25933;DHT22;13731;51.166;4.474;2023-08-20T08:24:05;22.50;99.90
25933;DHT22;13731;51.166;4.474;2023-08-20T08:26:31;22.60;99.90
25933;DHT22;13731;51.166;4.474;2023-08-20T08:28:56;22.80;99.90
25933;DHT22;13731;51.166;4.474;2023-08-20T08:31:23;22.90;99.90
25933;DHT22;13731;51.166;4.474;2023-08-20T08:33:48;22.90;99.90
25933;DHT22;13731;51.166;4.474;2023-08-20T08:36:14;23.00;99.90
25933;DHT22;13731;51.166;4.474;2023-08-20T08:38:42;23.20;99.90
25933;DHT22;13731;51.166;4.474;2023-08-20T08:41:10;23.30;99.90
25933;DHT22;13731;51.166;4.474;2023-08-20T08:43:36;23.30;99.90
25933;DHT22;13731;51.166;4.474;2023-08-20T08:46:03;23.40;99.90
25933;DHT22;13731;51.166;4.474;2023-08-20T08:48:31;23.40;99.90
25933;DHT22;13731;51.166;4.474;2023-08-20T08:50:57;23.50;98.00
25933;DHT22;13731;51.166;4.474;2023-08-20T08:53:23;23.60;86.60
25933;DHT22;13731;51.166;4.474;2023-08-20T08:55:50;23.70;86.00
25933;DHT22;13731;51.166;4.474;2023-08-20T08:58:16;23.70;75.90
25933;DHT22;13731;51.166;4.474;2023-08-20T09:00:41;23.70;63.60
25933;DHT22;13731;51.166;4.474;2023-08-20T09:03:07;23.60;84.10
25933;DHT22;13731;51.166;4.474;2023-08-20T09:05:33;23.60;68.50
25933;DHT22;13731;51.166;4.474;2023-08-20T09:08:10;23.60;63.50
25933;DHT22;13731;51.166;4.474;2023-08-20T09:10:44;23.60;61.00
25933;DHT22;13731;51.166;4.474;2023-08-20T09:13:10;23.70;74.00
25933;DHT22;13731;51.166;4.474;2023-08-20T09:15:36;23.90;49.00
25933;DHT22;13731;51.166;4.474;2023-08-20T09:18:02;23.90;35.70
25933;DHT22;13731;51.166;4.474;2023-08-20T09:20:35;23.90;39.50
25933;DHT22;13731;51.166;4.474;2023-08-20T09:23:01;24.30;36.80
25933;DHT22;13731;51.166;4.474;2023-08-20T09:25:27;24.40;31.20
25933;DHT22;13731;51.166;4.474;2023-08-20T09:27:53;24.40;19.50
25933;DHT22;13731;51.166;4.474;2023-08-20T09:30:19;24.20;26.50
25933;DHT22;13731;51.166;4.474;2023-08-20T09:32:46;24.10;31.40
25933;DHT22;13731;51.166;4.474;2023-08-20T09:35:27;24.60;17.70
25933;DHT22;13731;51.166;4.474;2023-08-20T09:37:58;24.60;7.30
25933;DHT22;13731;51.166;4.474;2023-08-20T09:40:23;24.60;13.60
25933;DHT22;13731;51.166;4.474;2023-08-20T09:42:49;24.70;17.80
25933;DHT22;13731;51.166;4.474;2023-08-20T09:45:15;25.00;15.40
25933;DHT22;13731;51.166;4.474;2023-08-20T09:47:41;25.10;13.50
25933;DHT22;13731;51.166;4.474;2023-08-20T09:50:08;25.00;7.90
25933;DHT22;13731;51.166;4.474;2023-08-20T09:52:39;24.90;4.80
25933;DHT22;13731;51.166;4.474;2023-08-20T09:55:11;25.00;8.60
25933;DHT22;13731;51.166;4.474;2023-08-20T09:57:39;25.20;1.20
25933;DHT22;13731;51.166;4.474;2023-08-20T10:00:06;25.60;1.00
25933;DHT22;13731;51.166;4.474;2023-08-20T10:02:41;25.90;1.00
25933;DHT22;13731;51.166;4.474;2023-08-20T10:05:08;26.20;1.00
25933;DHT22;13731;51.166;4.474;2023-08-20T10:07:34;26.30;1.00
25933;DHT22;13731;51.166;4.474;2023-08-20T10:10:01;26.20;1.00
25933;DHT22;13731;51.166;4.474;2023-08-20T10:12:27;26.30;1.00
25933;DHT22;13731;51.166;4.474;2023-08-20T10:14:54;26.70;1.00
25933;DHT22;13731;51.166;4.474;2023-08-20T10:17:19;28.70;1.00
25933;DHT22;13731;51.166;4.474;2023-08-20T10:19:47;30.60;1.00
25933;DHT22;13731;51.166;4.474;2023-08-20T10:22:13;31.80;1.00
25933;DHT22;13731;51.166;4.474;2023-08-20T10:24:47;32.30;1.00
25933;DHT22;13731;51.166;4.474;2023-08-20T10:27:22;34.30;1.00
25933;DHT22;13731;51.166;4.474;2023-08-20T10:29:49;33.70;1.00
25933;DHT22;13731;51.166;4.474;2023-08-20T10:32:15;34.20;1.00
25933;DHT22;13731;51.166;4.474;2023-08-20T10:34:42;34.70;1.00
25933;DHT22;13731;51.166;4.474;2023-08-20T10:37:08;34.40;1.00
25933;DHT22;13731;51.166;4.474;2023-08-20T10:39:34;35.40;1.00
25933;DHT22;13731;51.166;4.474;2023-08-20T10:42:10;36.60;1.00
25933;DHT22;13731;51.166;4.474;2023-08-20T10:47:47;37.20;1.00
25933;DHT22;13731;51.166;4.474;2023-08-20T10:50:17;37.20;1.00
25933;DHT22;13731;51.166;4.474;2023-08-20T10:52:50;38.30;1.00
25933;DHT22;13731;51.166;4.474;2023-08-20T10:55:17;38.70;1.00
25933;DHT22;13731;51.166;4.474;2023-08-20T10:57:48;39.40;1.00
25933;DHT22;13731;51.166;4.474;2023-08-20T11:00:19;39.70;1.00
25933;DHT22;13731;51.166;4.474;2023-08-20T11:02:45;39.70;1.00
25933;DHT22;13731;51.166;4.474;2023-08-20T11:05:21;39.20;1.00
25933;DHT22;13731;51.166;4.474;2023-08-20T11:07:47;38.60;1.00
25933;DHT22;13731;51.166;4.474;2023-08-20T11:10:14;39.00;1.00
25933;DHT22;13731;51.166;4.474;2023-08-20T11:12:40;39.70;1.00
25933;DHT22;13731;51.166;4.474;2023-08-20T11:15:07;40.70;1.00
25933;DHT22;13731;51.166;4.474;2023-08-20T11:17:33;40.80;1.00
25933;DHT22;13731;51.166;4.474;2023-08-20T11:19:59;39.60;1.00
25933;DHT22;13731;51.166;4.474;2023-08-20T11:22:24;40.10;1.00
25933;DHT22;13731;51.166;4.474;2023-08-20T11:24:50;40.00;1.00
25933;DHT22;13731;51.166;4.474;2023-08-20T11:27:16;39.00;1.00
25933;DHT22;13731;51.166;4.474;2023-08-20T11:29:42;39.70;1.00
25933;DHT22;13731;51.166;4.474;2023-08-20T11:32:09;39.10;1.00
25933;DHT22;13731;51.166;4.474;2023-08-20T11:34:35;40.20;1.00
25933;DHT22;13731;51.166;4.474;2023-08-20T11:37:01;39.00;1.00
25933;DHT22;13731;51.166;4.474;2023-08-20T11:39:28;38.30;1.00
25933;DHT22;13731;51.166;4.474;2023-08-20T11:41:54;38.60;1.00
25933;DHT22;13731;51.166;4.474;2023-08-20T11:44:22;39.10;1.00
25933;DHT22;13731;51.166;4.474;2023-08-20T11:46:48;38.70;1.00
25933;DHT22;13731;51.166;4.474;2023-08-20T11:49:15;38.70;1.00
25933;DHT22;13731;51.166;4.474;2023-08-20T11:51:42;40.50;1.00
25933;DHT22;13731;51.166;4.474;2023-08-20T11:54:11;41.90;1.00
25933;DHT22;13731;51.166;4.474;2023-08-20T11:56:43;42.80;1.00
25933;DHT22;13731;51.166;4.474;2023-08-20T11:59:10;42.60;1.00
25933;DHT22;13731;51.166;4.474;2023-08-20T12:01:35;43.10;1.00
25933;DHT22;13731;51.166;4.474;2023-08-20T12:04:04;42.60;1.00
25933;DHT22;13731;51.166;4.474;2023-08-20T12:06:31;41.80;1.00
25933;DHT22;13731;51.166;4.474;2023-08-20T12:08:57;39.00;1.00
25933;DHT22;13731;51.166;4.474;2023-08-20T12:11:26;38.20;1.00
25933;DHT22;13731;51.166;4.474;2023-08-20T12:13:52;38.70;1.00
25933;DHT22;13731;51.166;4.474;2023-08-20T12:16:18;39.00;1.00
25933;DHT22;13731;51.166;4.474;2023-08-20T12:18:47;38.80;1.00
25933;DHT22;13731;51.166;4.474;2023-08-20T12:21:12;41.30;1.00
25933;DHT22;13731;51.166;4.474;2023-08-20T12:23:38;41.50;1.00
25933;DHT22;13731;51.166;4.474;2023-08-20T12:26:04;40.30;1.00
25933;DHT22;13731;51.166;4.474;2023-08-20T12:28:30;38.80;1.00
25933;DHT22;13731;51.166;4.474;2023-08-20T12:30:56;38.60;1.00
25933;DHT22;13731;51.166;4.474;2023-08-20T12:33:21;37.70;1.00
25933;DHT22;13731;51.166;4.474;2023-08-20T12:35:47;38.90;1.00
25933;DHT22;13731;51.166;4.474;2023-08-20T12:38:13;41.10;1.00
25933;DHT22;13731;51.166;4.474;2023-08-20T12:40:39;40.90;1.00
25933;DHT22;13731;51.166;4.474;2023-08-20T12:43:04;38.30;1.00
25933;DHT22;13731;51.166;4.474;2023-08-20T12:45:30;37.70;1.00
25933;DHT22;13731;51.166;4.474;2023-08-20T12:47:56;37.20;1.00
25933;DHT22;13731;51.166;4.474;2023-08-20T12:50:21;35.50;1.00
25933;DHT22;13731;51.166;4.474;2023-08-20T12:52:47;34.00;1.00
25933;DHT22;13731;51.166;4.474;2023-08-20T12:55:14;34.30;1.00
25933;DHT22;13731;51.166;4.474;2023-08-20T12:57:51;35.30;1.00
25933;DHT22;13731;51.166;4.474;2023-08-20T13:00:17;36.40;1.00
25933;DHT22;13731;51.166;4.474;2023-08-20T13:02:43;38.10;1.00
25933;DHT22;13731;51.166;4.474;2023-08-20T13:05:09;39.20;1.00
25933;DHT22;13731;51.166;4.474;2023-08-20T13:07:36;38.30;1.00
25933;DHT22;13731;51.166;4.474;2023-08-20T13:10:02;38.90;1.00
25933;DHT22;13731;51.166;4.474;2023-08-20T13:12:28;39.00;1.00
25933;DHT22;13731;51.166;4.474;2023-08-20T13:14:57;37.40;1.00
25933;DHT22;13731;51.166;4.474;2023-08-20T13:17:24;36.00;1.00
25933;DHT22;13731;51.166;4.474;2023-08-20T13:19:50;36.50;1.00
25933;DHT22;13731;51.166;4.474;2023-08-20T13:22:15;38.70;1.00
25933;DHT22;13731;51.166;4.474;2023-08-20T13:24:42;41.50;1.00
25933;DHT22;13731;51.166;4.474;2023-08-20T13:27:07;43.50;1.00
25933;DHT22;13731;51.166;4.474;2023-08-20T13:29:33;43.70;1.00
25933;DHT22;13731;51.166;4.474;2023-08-20T13:31:59;43.20;1.00
25933;DHT22;13731;51.166;4.474;2023-08-20T13:34:26;43.20;1.00
25933;DHT22;13731;51.166;4.474;2023-08-20T13:36:51;43.40;1.00
25933;DHT22;13731;51.166;4.474;2023-08-20T13:39:17;42.40;1.00
25933;DHT22;13731;51.166;4.474;2023-08-20T13:41:44;42.40;1.00
25933;DHT22;13731;51.166;4.474;2023-08-20T13:44:09;42.10;1.00
25933;DHT22;13731;51.166;4.474;2023-08-20T13:46:35;40.00;1.00
25933;DHT22;13731;51.166;4.474;2023-08-20T13:49:01;39.00;1.00
25933;DHT22;13731;51.166;4.474;2023-08-20T13:51:28;39.30;1.00
25933;DHT22;13731;51.166;4.474;2023-08-20T13:53:54;39.60;1.00
25933;DHT22;13731;51.166;4.474;2023-08-20T13:56:20;41.20;1.00
25933;DHT22;13731;51.166;4.474;2023-08-20T13:58:46;42.10;1.00
25933;DHT22;13731;51.166;4.474;2023-08-20T14:01:11;42.70;1.00
25933;DHT22;13731;51.166;4.474;2023-08-20T14:03:39;44.40;1.00
25933;DHT22;13731;51.166;4.474;2023-08-20T14:06:05;45.70;1.00
25933;DHT22;13731;51.166;4.474;2023-08-20T14:08:31;46.50;1.00
25933;DHT22;13731;51.166;4.474;2023-08-20T14:10:57;46.50;1.00
25933;DHT22;13731;51.166;4.474;2023-08-20T14:13:23;46.30;1.00
25933;DHT22;13731;51.166;4.474;2023-08-20T14:15:49;44.90;1.00
25933;DHT22;13731;51.166;4.474;2023-08-20T14:18:15;43.00;1.00
25933;DHT22;13731;51.166;4.474;2023-08-20T14:20:41;41.60;1.00
25933;DHT22;13731;51.166;4.474;2023-08-20T14:23:07;40.10;1.00
25933;DHT22;13731;51.166;4.474;2023-08-20T14:25:33;39.00;1.00
25933;DHT22;13731;51.166;4.474;2023-08-20T14:27:59;37.60;1.00
25933;DHT22;13731;51.166;4.474;2023-08-20T14:30:24;36.50;1.00
25933;DHT22;13731;51.166;4.474;2023-08-20T14:32:50;36.20;1.00
25933;DHT22;13731;51.166;4.474;2023-08-20T14:35:16;35.60;1.00
25933;DHT22;13731;51.166;4.474;2023-08-20T14:37:41;35.20;1.00
25933;DHT22;13731;51.166;4.474;2023-08-20T14:40:08;35.10;1.00
25933;DHT22;13731;51.166;4.474;2023-08-20T14:42:36;34.70;1.00
25933;DHT22;13731;51.166;4.474;2023-08-20T14:45:01;33.80;1.00
25933;DHT22;13731;51.166;4.474;2023-08-20T14:47:29;33.30;1.00
25933;DHT22;13731;51.166;4.474;2023-08-20T14:49:55;33.20;1.00
25933;DHT22;13731;51.166;4.474;2023-08-20T14:52:20;33.20;1.00
25933;DHT22;13731;51.166;4.474;2023-08-20T14:54:46;33.40;1.00
25933;DHT22;13731;51.166;4.474;2023-08-20T14:57:12;33.50;1.00
25933;DHT22;13731;51.166;4.474;2023-08-20T14:59:38;33.20;1.00
25933;DHT22;13731;51.166;4.474;2023-08-20T15:02:03;33.10;1.00
25933;DHT22;13731;51.166;4.474;2023-08-20T15:04:29;33.50;1.00
25933;DHT22;13731;51.166;4.474;2023-08-20T15:06:55;34.00;1.00
25933;DHT22;13731;51.166;4.474;2023-08-20T15:09:20;34.90;1.00
25933;DHT22;13731;51.166;4.474;2023-08-20T15:11:46;35.80;1.00
25933;DHT22;13731;51.166;4.474;2023-08-20T15:14:12;37.50;1.00
25933;DHT22;13731;51.166;4.474;2023-08-20T15:16:38;38.50;1.00
25933;DHT22;13731;51.166;4.474;2023-08-20T15:19:03;37.60;1.00
25933;DHT22;13731;51.166;4.474;2023-08-20T15:21:29;37.90;1.00
25933;DHT22;13731;51.166;4.474;2023-08-20T15:23:55;37.20;1.00
25933;DHT22;13731;51.166;4.474;2023-08-20T15:26:20;36.50;1.00
25933;DHT22;13731;51.166;4.474;2023-08-20T15:28:46;36.70;1.00
25933;DHT22;13731;51.166;4.474;2023-08-20T15:31:12;35.90;1.00
25933;DHT22;13731;51.166;4.474;2023-08-20T15:33:38;35.50;1.00
25933;DHT22;13731;51.166;4.474;2023-08-20T15:36:03;34.60;1.00
25933;DHT22;13731;51.166;4.474;2023-08-20T15:38:30;33.80;1.00
25933;DHT22;13731;51.166;4.474;2023-08-20T15:40:56;33.70;1.00